createdAt,value
2022-08-22T00:02:57.282Z,1.90
2022-08-22T00:03:02.382Z,4.30
2022-08-22T00:03:22.744Z,4.10
2022-08-22T00:03:27.987Z,4.50
2022-08-22T00:04:27.827Z,4.90
2022-08-22T00:05:27.815Z,5.10
2022-08-22T00:06:27.759Z,4.70
2022-08-22T00:07:27.831Z,4.50
2022-08-22T00:08:27.927Z,5.00
2022-08-22T00:09:27.772Z,5.00
2022-08-22T00:10:27.846Z,5.30
2022-08-22T00:11:27.953Z,4.80
2022-08-22T00:12:27.911Z,5.60
2022-08-22T00:13:28.011Z,5.20
2022-08-22T00:14:28.147Z,4.70
2022-08-22T00:15:42.596Z,4.50
2022-08-22T00:16:27.904Z,4.90
2022-08-22T00:17:27.691Z,4.90
2022-08-22T00:18:27.635Z,4.90
2022-08-22T00:19:27.785Z,4.80
2022-08-22T00:20:28.298Z,5.00
2022-08-22T00:21:27.967Z,4.90
2022-08-22T00:22:27.824Z,5.30
2022-08-22T00:23:27.826Z,5.10
2022-08-22T00:24:28.067Z,5.20
2022-08-22T00:25:27.600Z,5.00
2022-08-22T00:26:27.819Z,5.10
2022-08-22T00:27:27.549Z,5.10
2022-08-22T00:28:27.683Z,5.10
2022-08-22T00:29:27.567Z,5.00
2022-08-22T00:30:27.788Z,4.90
2022-08-22T00:31:27.499Z,5.00
2022-08-22T00:32:28.285Z,5.30
2022-08-22T00:33:28.153Z,4.80
2022-08-22T00:34:27.729Z,5.00
2022-08-22T00:35:27.803Z,5.30
2022-08-22T00:36:27.930Z,5.30
2022-08-22T00:37:27.893Z,5.50
2022-08-22T00:38:27.596Z,4.80
2022-08-22T00:39:27.403Z,5.20
2022-08-22T00:40:27.461Z,5.50
2022-08-22T00:41:27.449Z,4.80
2022-08-22T00:42:29.491Z,4.60
2022-08-22T00:43:27.450Z,5.20
2022-08-22T00:44:28.008Z,4.80
2022-08-22T00:45:27.666Z,4.80
2022-08-22T00:46:27.349Z,4.90
2022-08-22T00:47:27.737Z,5.20
2022-08-22T00:48:27.493Z,4.70
2022-08-22T00:49:29.660Z,4.20
2022-08-22T00:50:27.408Z,4.80
2022-08-22T00:51:27.331Z,4.60
2022-08-22T00:52:27.470Z,4.80
2022-08-22T00:53:27.406Z,4.60
2022-08-22T00:54:27.473Z,5.10
2022-08-22T00:55:28.000Z,4.40
2022-08-22T00:56:27.357Z,4.50
2022-08-22T00:57:27.490Z,4.80
2022-08-22T00:58:27.394Z,5.00
2022-08-22T00:59:27.198Z,4.70
2022-08-22T01:00:27.231Z,4.80
2022-08-22T01:01:27.466Z,5.10
2022-08-22T01:02:27.495Z,4.50
2022-08-22T01:03:27.392Z,5.10
2022-08-22T01:04:27.273Z,4.80
2022-08-22T01:05:27.216Z,4.90
2022-08-22T01:06:27.182Z,4.80
2022-08-22T01:07:30.539Z,5.00
2022-08-22T01:08:27.468Z,4.90
2022-08-22T01:09:27.358Z,5.20
2022-08-22T01:10:27.416Z,4.80
2022-08-22T01:11:27.720Z,4.90
2022-08-22T01:12:27.401Z,4.80
2022-08-22T01:13:27.163Z,4.90
2022-08-22T01:14:34.931Z,4.70
2022-08-22T01:15:27.309Z,5.10
2022-08-22T01:16:27.159Z,5.00
2022-08-22T01:17:27.337Z,4.50
2022-08-22T01:18:27.138Z,5.00
2022-08-22T01:19:27.163Z,5.10
2022-08-22T01:20:27.174Z,5.00
2022-08-22T01:21:27.165Z,4.90
2022-08-22T01:22:27.005Z,4.80
2022-08-22T01:23:27.051Z,4.90
2022-08-22T01:24:27.166Z,4.90
2022-08-22T01:25:27.217Z,5.20
2022-08-22T01:26:28.545Z,4.80
2022-08-22T01:27:27.002Z,4.80
2022-08-22T01:28:26.936Z,4.70
2022-08-22T01:29:28.437Z,5.30
2022-08-22T01:30:27.107Z,4.90
2022-08-22T01:31:27.004Z,4.90
2022-08-22T01:32:27.075Z,5.40
2022-08-22T01:33:26.993Z,4.90
2022-08-22T01:34:26.881Z,5.20
2022-08-22T01:35:26.870Z,5.20
2022-08-22T01:36:26.847Z,5.00
2022-08-22T01:37:26.993Z,5.10
2022-08-22T01:38:26.835Z,4.40
2022-08-22T01:39:26.751Z,5.10
2022-08-22T01:40:27.190Z,4.70
2022-08-22T01:41:26.807Z,5.20
2022-08-22T01:42:26.937Z,5.30
2022-08-22T01:43:51.330Z,4.90
2022-08-22T01:44:26.749Z,5.00
2022-08-22T01:45:27.182Z,4.70
2022-08-22T01:46:26.997Z,5.00
2022-08-22T01:47:26.813Z,5.00
2022-08-22T01:48:26.712Z,4.90
2022-08-22T01:49:26.775Z,4.50
2022-08-22T01:50:26.755Z,5.10
2022-08-22T01:51:26.683Z,4.50
2022-08-22T01:52:26.590Z,5.50
2022-08-22T01:53:27.117Z,4.70
2022-08-22T01:54:26.707Z,5.10
2022-08-22T01:55:26.596Z,5.00
2022-08-22T01:56:26.695Z,5.10
2022-08-22T01:57:26.633Z,5.10
2022-08-22T01:58:26.591Z,4.90
2022-08-22T01:59:27.602Z,5.40
2022-08-22T02:00:35.347Z,5.10
2022-08-22T02:01:26.595Z,4.80
2022-08-22T02:02:26.582Z,5.10
2022-08-22T02:03:26.620Z,5.20
2022-08-22T02:04:26.628Z,5.40
2022-08-22T02:05:26.659Z,5.40
2022-08-22T02:06:26.585Z,5.30
2022-08-22T02:07:31.775Z,4.80
2022-08-22T02:08:26.646Z,5.90
2022-08-22T02:09:26.509Z,6.10
2022-08-22T02:10:26.405Z,5.60
2022-08-22T02:11:26.477Z,5.20
2022-08-22T02:12:26.592Z,5.20
2022-08-22T02:13:26.691Z,5.40
2022-08-22T02:14:26.342Z,5.10
2022-08-22T02:15:26.520Z,5.50
2022-08-22T02:16:26.350Z,5.20
2022-08-22T02:17:26.414Z,5.20
2022-08-22T02:18:26.501Z,5.70
2022-08-22T02:19:26.591Z,4.80
2022-08-22T02:20:26.562Z,5.70
2022-08-22T02:21:26.634Z,5.20
2022-08-22T02:22:26.515Z,5.80
2022-08-22T02:23:26.393Z,5.30
2022-08-22T02:24:26.629Z,5.30
2022-08-22T02:25:26.509Z,5.40
2022-08-22T02:26:27.109Z,5.30
2022-08-22T02:27:31.372Z,5.60
2022-08-22T02:28:26.412Z,5.30
2022-08-22T02:29:26.374Z,5.30
2022-08-22T02:30:26.303Z,5.20
2022-08-22T02:31:26.402Z,5.70
2022-08-22T02:32:26.514Z,5.80
2022-08-22T02:33:26.419Z,4.90
2022-08-22T02:34:26.467Z,5.20
2022-08-22T02:35:26.142Z,5.70
2022-08-22T02:36:26.088Z,5.50
2022-08-22T02:37:26.174Z,5.50
2022-08-22T02:38:26.208Z,5.30
2022-08-22T02:39:26.671Z,5.60
2022-08-22T02:40:26.205Z,5.20
2022-08-22T02:41:26.427Z,5.30
2022-08-22T02:42:26.232Z,4.70
2022-08-22T02:43:26.184Z,5.40
2022-08-22T02:44:26.063Z,5.60
2022-08-22T02:45:26.103Z,5.30
2022-08-22T02:46:26.124Z,4.80
2022-08-22T02:47:26.150Z,4.90
2022-08-22T02:48:26.317Z,5.10
2022-08-22T02:49:27.324Z,5.50
2022-08-22T02:50:26.287Z,5.70
2022-08-22T02:51:26.069Z,5.60
2022-08-22T02:52:26.218Z,5.20
2022-08-22T02:53:26.189Z,5.20
2022-08-22T02:54:25.965Z,4.80
2022-08-22T02:55:26.150Z,5.50
2022-08-22T02:56:26.098Z,5.60
2022-08-22T02:57:26.282Z,5.60
2022-08-22T02:58:25.967Z,5.60
2022-08-22T02:59:25.941Z,5.60
2022-08-22T03:00:31.255Z,5.40
2022-08-22T03:01:25.961Z,5.00
2022-08-22T03:02:26.023Z,4.90
2022-08-22T03:03:26.067Z,5.30
2022-08-22T03:04:25.871Z,5.20
2022-08-22T03:05:26.185Z,5.00
2022-08-22T03:06:26.076Z,5.20
2022-08-22T03:07:25.996Z,5.30
2022-08-22T03:08:25.945Z,5.60
2022-08-22T03:09:25.994Z,4.80
2022-08-22T03:10:26.223Z,5.50
2022-08-22T03:11:25.904Z,5.30
2022-08-22T03:12:25.752Z,5.20
2022-08-22T03:13:25.784Z,5.00
2022-08-22T03:14:25.922Z,5.50
2022-08-22T03:15:25.870Z,5.00
2022-08-22T03:16:26.049Z,4.80
2022-08-22T03:17:25.768Z,4.50
2022-08-22T03:18:25.762Z,5.50
2022-08-22T03:19:25.860Z,4.90
2022-08-22T03:20:25.925Z,4.80
2022-08-22T03:21:25.769Z,5.20
2022-08-22T03:22:25.662Z,5.20
2022-08-22T03:23:25.654Z,4.80
2022-08-22T03:24:25.662Z,4.50
2022-08-22T03:25:25.742Z,4.80
2022-08-22T03:26:25.899Z,4.50
2022-08-22T03:27:32.931Z,4.60
2022-08-22T03:28:25.630Z,4.70
2022-08-22T03:29:25.878Z,5.00
2022-08-22T03:30:25.781Z,4.90
2022-08-22T03:31:25.606Z,4.60
2022-08-22T03:32:25.784Z,5.10
2022-08-22T03:33:25.547Z,5.20
2022-08-22T03:34:25.730Z,5.20
2022-08-22T03:35:25.666Z,4.90
2022-08-22T03:36:25.549Z,4.90
2022-08-22T03:37:26.227Z,5.10
2022-08-22T03:38:25.684Z,4.90
2022-08-22T03:39:25.587Z,4.60
2022-08-22T03:40:27.826Z,5.60
2022-08-22T03:41:25.475Z,4.70
2022-08-22T03:42:25.735Z,5.00
2022-08-22T03:43:25.456Z,4.30
2022-08-22T03:44:25.451Z,4.90
2022-08-22T03:45:25.481Z,4.40
2022-08-22T03:46:25.533Z,4.90
2022-08-22T03:47:25.385Z,5.10
2022-08-22T03:48:25.450Z,5.00
2022-08-22T03:49:25.401Z,4.70
2022-08-22T03:50:25.310Z,4.80
2022-08-22T03:51:25.284Z,5.00
2022-08-22T03:52:25.457Z,4.60
2022-08-22T03:53:25.269Z,4.50
2022-08-22T03:54:25.285Z,4.70
2022-08-22T03:55:25.259Z,4.80
2022-08-22T03:56:25.295Z,5.50
2022-08-22T03:57:25.321Z,4.80
2022-08-22T03:58:27.917Z,5.20
2022-08-22T03:59:25.258Z,5.00
2022-08-22T04:00:25.386Z,4.80
2022-08-22T04:01:25.207Z,5.00
2022-08-22T04:02:43.594Z,5.00
2022-08-22T04:03:25.333Z,5.30
2022-08-22T04:04:25.239Z,5.30
2022-08-22T04:05:25.365Z,4.80
2022-08-22T04:06:25.311Z,5.40
2022-08-22T04:07:31.699Z,5.30
2022-08-22T04:08:26.417Z,4.70
2022-08-22T04:09:25.321Z,5.40
2022-08-22T04:10:25.325Z,5.30
2022-08-22T04:11:25.156Z,4.60
2022-08-22T04:12:25.142Z,5.00
2022-08-22T04:13:25.329Z,5.30
2022-08-22T04:14:25.678Z,5.10
2022-08-22T04:15:25.567Z,5.60
2022-08-22T04:16:25.343Z,5.60
2022-08-22T04:17:25.245Z,5.10
2022-08-22T04:18:25.158Z,5.80
2022-08-22T04:19:25.124Z,5.40
2022-08-22T04:20:25.048Z,5.60
2022-08-22T04:21:25.190Z,5.70
2022-08-22T04:22:25.093Z,5.50
2022-08-22T04:23:24.947Z,5.50
2022-08-22T04:24:25.065Z,5.40
2022-08-22T04:25:24.945Z,4.90
2022-08-22T04:26:24.907Z,5.80
2022-08-22T04:27:24.947Z,5.00
2022-08-22T04:28:24.846Z,5.10
2022-08-22T04:29:24.977Z,5.70
2022-08-22T04:30:24.895Z,4.90
2022-08-22T04:31:24.891Z,5.20
2022-08-22T04:32:24.993Z,5.10
2022-08-22T04:33:24.857Z,5.20
2022-08-22T04:34:24.898Z,5.40
2022-08-22T04:35:24.850Z,5.90
2022-08-22T04:36:24.753Z,5.20
2022-08-22T04:37:24.849Z,5.50
2022-08-22T04:38:24.766Z,5.70
2022-08-22T04:39:24.708Z,5.30
2022-08-22T04:40:24.863Z,5.50
2022-08-22T04:41:24.753Z,5.10
2022-08-22T04:42:33.239Z,5.20
2022-08-22T04:43:24.679Z,4.70
2022-08-22T04:44:24.704Z,5.20
2022-08-22T04:45:24.755Z,4.80
2022-08-22T04:46:24.620Z,4.90
2022-08-22T04:47:24.751Z,5.50
2022-08-22T04:48:24.605Z,5.30
2022-08-22T04:49:24.671Z,5.40
2022-08-22T04:50:24.695Z,4.90
2022-08-22T04:51:24.611Z,5.70
2022-08-22T04:52:24.570Z,5.40
2022-08-22T04:53:24.600Z,5.20
2022-08-22T04:54:24.600Z,5.60
2022-08-22T04:55:24.594Z,5.60
2022-08-22T04:56:24.759Z,5.40
2022-08-22T04:57:24.612Z,5.60
2022-08-22T04:58:24.649Z,5.70
2022-08-22T04:59:24.620Z,5.10
2022-08-22T05:00:24.510Z,5.40
2022-08-22T05:01:24.628Z,5.30
2022-08-22T05:02:24.547Z,5.40
2022-08-22T05:03:24.589Z,5.40
2022-08-22T05:04:24.464Z,5.00
2022-08-22T05:05:24.653Z,5.10
2022-08-22T05:06:24.659Z,5.10
2022-08-22T05:07:24.465Z,5.00
2022-08-22T05:08:24.456Z,5.90
2022-08-22T05:09:24.592Z,5.20
2022-08-22T05:10:24.427Z,5.60
2022-08-22T05:11:24.448Z,5.40
2022-08-22T05:12:24.451Z,5.70
2022-08-22T05:13:24.558Z,5.60
2022-08-22T05:14:24.357Z,5.90
2022-08-22T05:15:24.358Z,5.30
2022-08-22T05:16:24.416Z,5.60
2022-08-22T05:17:24.333Z,5.80
2022-08-22T05:18:25.923Z,5.70
2022-08-22T05:19:31.149Z,5.60
2022-08-22T05:20:24.560Z,5.80
2022-08-22T05:21:24.314Z,5.30
2022-08-22T05:22:24.301Z,5.00
2022-08-22T05:23:24.179Z,5.30
2022-08-22T05:24:24.226Z,5.80
2022-08-22T05:25:24.195Z,5.20
2022-08-22T05:26:24.251Z,6.00
2022-08-22T05:27:24.222Z,6.30
2022-08-22T05:28:24.212Z,6.50
2022-08-22T05:29:24.126Z,6.20
2022-08-22T05:30:24.175Z,5.40
2022-08-22T05:31:24.252Z,5.90
2022-08-22T05:32:24.299Z,6.00
2022-08-22T05:33:24.196Z,6.00
2022-08-22T05:34:24.166Z,6.30
2022-08-22T05:35:24.148Z,6.10
2022-08-22T05:36:24.144Z,5.70
2022-08-22T05:37:24.112Z,5.80
2022-08-22T05:38:24.129Z,6.00
2022-08-22T05:39:25.390Z,6.40
2022-08-22T05:40:24.137Z,6.30
2022-08-22T05:41:24.082Z,6.50
2022-08-22T05:42:24.153Z,6.00
2022-08-22T05:43:24.039Z,6.10
2022-08-22T05:44:24.139Z,6.70
2022-08-22T05:45:24.090Z,6.00
2022-08-22T05:46:27.051Z,5.90
2022-08-22T05:47:23.973Z,6.50
2022-08-22T05:48:24.079Z,6.40
2022-08-22T05:49:23.972Z,5.80
2022-08-22T05:50:23.978Z,5.90
2022-08-22T05:51:23.954Z,5.50
2022-08-22T05:52:23.945Z,6.20
2022-08-22T05:53:24.050Z,7.10
2022-08-22T05:54:34.493Z,5.80
2022-08-22T05:55:23.999Z,6.50
2022-08-22T05:56:23.925Z,6.50
2022-08-22T05:57:23.856Z,5.80
2022-08-22T05:58:23.950Z,6.40
2022-08-22T05:59:23.882Z,6.80
2022-08-22T06:00:23.897Z,6.10
2022-08-22T06:01:23.870Z,6.30
2022-08-22T06:02:23.875Z,6.80
2022-08-22T06:03:23.879Z,5.80
2022-08-22T06:04:23.799Z,5.60
2022-08-22T06:05:23.821Z,5.60
2022-08-22T06:06:23.926Z,6.20
2022-08-22T06:07:23.867Z,5.60
2022-08-22T06:08:23.774Z,5.10
2022-08-22T06:09:23.765Z,5.70
2022-08-22T06:10:23.867Z,6.20
2022-08-22T06:11:23.726Z,6.20
2022-08-22T06:12:23.701Z,6.70
2022-08-22T06:13:24.704Z,6.40
2022-08-22T06:14:24.828Z,6.40
2022-08-22T06:15:23.667Z,6.00
2022-08-22T06:16:23.635Z,6.10
2022-08-22T06:17:23.723Z,6.40
2022-08-22T06:18:23.683Z,6.20
2022-08-22T06:19:23.763Z,5.80
2022-08-22T06:20:23.828Z,6.70
2022-08-22T06:21:23.683Z,6.40
2022-08-22T06:22:23.633Z,5.80
2022-08-22T06:23:23.562Z,6.60
2022-08-22T06:24:23.547Z,6.30
2022-08-22T06:25:23.523Z,6.40
2022-08-22T06:26:23.556Z,6.30
2022-08-22T06:27:23.578Z,6.10
2022-08-22T06:28:23.621Z,5.70
2022-08-22T06:29:23.441Z,6.20
2022-08-22T06:30:23.489Z,5.80
2022-08-22T06:31:23.410Z,8.80
2022-08-22T06:32:47.076Z,5.80
2022-08-22T06:33:23.413Z,6.00
2022-08-22T06:34:23.374Z,6.20
2022-08-22T06:35:23.389Z,7.20
2022-08-22T06:36:23.346Z,6.60
2022-08-22T06:37:23.361Z,6.50
2022-08-22T06:38:23.328Z,6.10
2022-08-22T06:39:23.392Z,6.30
2022-08-22T06:40:23.441Z,6.20
2022-08-22T06:41:23.300Z,5.90
2022-08-22T06:42:23.307Z,6.40
2022-08-22T06:43:23.310Z,6.00
2022-08-22T06:44:23.260Z,5.90
2022-08-22T06:45:23.280Z,6.20
2022-08-22T06:46:23.245Z,5.90
2022-08-22T06:47:23.245Z,6.30
2022-08-22T06:48:23.234Z,5.70
2022-08-22T06:49:23.215Z,5.60
2022-08-22T06:50:23.216Z,5.70
2022-08-22T06:51:23.224Z,5.90
2022-08-22T06:52:23.187Z,5.70
2022-08-22T06:53:23.169Z,6.10
2022-08-22T06:54:23.179Z,5.80
2022-08-22T06:55:23.150Z,6.00
2022-08-22T06:56:23.180Z,5.80
2022-08-22T06:57:23.138Z,6.30
2022-08-22T06:58:23.125Z,6.30
2022-08-22T06:59:23.116Z,5.80
2022-08-22T07:00:23.181Z,5.80
2022-08-22T07:01:23.208Z,6.20
2022-08-22T07:02:23.150Z,5.30
2022-08-22T07:03:23.076Z,5.60
2022-08-22T07:04:23.064Z,5.80
2022-08-22T07:05:23.039Z,5.60
2022-08-22T07:06:23.049Z,5.20
2022-08-22T07:07:23.019Z,5.50
2022-08-22T07:08:23.004Z,5.70
2022-08-22T07:09:23.004Z,5.50
2022-08-22T07:10:22.997Z,6.90
2022-08-22T07:11:22.993Z,6.60
2022-08-22T07:12:22.981Z,6.20
2022-08-22T07:13:22.956Z,6.10
2022-08-22T07:14:22.937Z,6.40
2022-08-22T07:15:22.979Z,6.40
2022-08-22T07:16:22.922Z,6.40
2022-08-22T07:17:22.971Z,6.40
2022-08-22T07:18:22.886Z,5.90
2022-08-22T07:19:22.907Z,5.90
2022-08-22T07:20:22.882Z,6.00
2022-08-22T07:21:23.390Z,5.40
2022-08-22T07:22:22.895Z,5.40
2022-08-22T07:23:22.839Z,5.70
2022-08-22T07:24:22.839Z,5.10
2022-08-22T07:25:22.818Z,5.70
2022-08-22T07:26:22.824Z,5.80
2022-08-22T07:27:22.801Z,5.90
2022-08-22T07:28:36.687Z,6.30
2022-08-22T07:29:23.150Z,6.20
2022-08-22T07:30:27.431Z,6.10
2022-08-22T07:31:22.764Z,5.80
2022-08-22T07:32:22.751Z,5.80
2022-08-22T07:33:26.633Z,5.60
2022-08-22T07:34:22.728Z,5.20
2022-08-22T07:35:22.700Z,5.80
2022-08-22T07:36:23.288Z,5.50
2022-08-22T07:37:22.678Z,5.80
2022-08-22T07:38:22.684Z,5.60
2022-08-22T07:39:22.687Z,5.70
2022-08-22T07:40:22.778Z,5.40
2022-08-22T07:41:22.640Z,5.30
2022-08-22T07:42:22.629Z,5.70
2022-08-22T07:43:22.650Z,5.90
2022-08-22T07:44:22.670Z,5.90
2022-08-22T07:45:22.584Z,5.00
2022-08-22T07:46:22.574Z,5.50
2022-08-22T07:47:26.345Z,5.60
2022-08-22T07:48:26.029Z,5.80
2022-08-22T07:49:22.533Z,5.90
2022-08-22T07:50:22.556Z,5.40
2022-08-22T07:51:22.511Z,5.50
2022-08-22T07:52:22.514Z,6.30
2022-08-22T07:53:22.490Z,5.80
2022-08-22T07:54:22.497Z,5.60
2022-08-22T07:55:22.477Z,5.60
2022-08-22T07:56:22.466Z,5.60
2022-08-22T07:57:22.444Z,5.20
2022-08-22T07:58:22.433Z,5.50
2022-08-22T07:59:22.448Z,5.50
2022-08-22T08:00:22.421Z,5.70
2022-08-22T08:01:22.474Z,5.10
2022-08-22T08:02:22.399Z,5.20
2022-08-22T08:03:22.403Z,5.30
2022-08-22T08:04:22.412Z,5.60
2022-08-22T08:05:22.416Z,5.90
2022-08-22T08:06:22.358Z,6.70
2022-08-22T08:07:22.384Z,6.00
2022-08-22T08:08:22.360Z,6.00
2022-08-22T08:09:22.360Z,6.10
2022-08-22T08:10:22.336Z,6.00
2022-08-22T08:11:22.286Z,6.60
2022-08-22T08:12:22.279Z,5.90
2022-08-22T08:13:22.271Z,5.90
2022-08-22T08:14:22.318Z,5.40
2022-08-22T08:15:22.275Z,5.40
2022-08-22T08:16:22.239Z,5.30
2022-08-22T08:17:22.260Z,5.40
2022-08-22T08:18:22.214Z,5.60
2022-08-22T08:19:22.272Z,5.80
2022-08-22T08:20:22.191Z,6.00
2022-08-22T08:21:22.191Z,6.10
2022-08-22T08:22:22.172Z,6.30
2022-08-22T08:23:23.612Z,5.60
2022-08-22T08:24:22.195Z,5.80
2022-08-22T08:25:22.158Z,5.50
2022-08-22T08:26:22.147Z,4.60
2022-08-22T08:27:22.141Z,5.30
2022-08-22T08:28:22.128Z,6.00
2022-08-22T08:29:22.137Z,6.10
2022-08-22T08:30:22.095Z,5.70
2022-08-22T08:31:22.076Z,6.20
2022-08-22T08:32:22.068Z,5.60
2022-08-22T08:33:25.937Z,5.70
2022-08-22T08:34:22.060Z,5.40
2022-08-22T08:35:22.062Z,6.30
2022-08-22T08:36:22.012Z,6.30
2022-08-22T08:37:22.005Z,6.50
2022-08-22T08:38:21.997Z,6.10
2022-08-22T08:39:22.017Z,6.40
2022-08-22T08:40:22.004Z,5.60
2022-08-22T08:41:22.736Z,5.10
2022-08-22T08:42:21.969Z,4.70
2022-08-22T08:43:21.972Z,5.40
2022-08-22T08:44:21.966Z,5.60
2022-08-22T08:45:21.943Z,6.10
2022-08-22T08:46:21.942Z,5.80
2022-08-22T08:47:21.927Z,5.70
2022-08-22T08:48:21.923Z,5.10
2022-08-22T08:49:23.972Z,4.80
2022-08-22T08:50:21.866Z,5.10
2022-08-22T08:51:23.369Z,5.20
2022-08-22T08:52:21.839Z,5.00
2022-08-22T08:53:21.904Z,5.30
2022-08-22T08:54:21.844Z,5.80
2022-08-22T08:55:22.846Z,6.00
2022-08-22T08:56:21.799Z,5.10
2022-08-22T08:57:21.793Z,5.30
2022-08-22T08:58:21.773Z,4.80
2022-08-22T08:59:21.804Z,5.50
2022-08-22T09:00:21.745Z,5.20
2022-08-22T09:01:21.828Z,5.00
2022-08-22T09:02:23.714Z,5.30
2022-08-22T09:40:15.327Z,4.40
2022-08-22T09:40:30.205Z,5.30
2022-08-22T09:41:30.197Z,4.10
2022-08-22T09:42:30.158Z,3.90
2022-08-22T09:43:30.162Z,4.00
2022-08-22T09:44:30.196Z,3.50
2022-08-22T09:45:30.130Z,3.50
2022-08-22T09:46:36.622Z,3.80
2022-08-22T09:47:32.631Z,3.30
2022-08-22T09:48:30.099Z,4.10
2022-08-22T09:49:30.106Z,3.80
2022-08-22T09:50:30.094Z,4.40
2022-08-22T09:51:32.349Z,4.10
2022-08-22T09:52:34.047Z,4.30
2022-08-22T09:53:30.076Z,3.70
2022-08-22T09:54:31.716Z,3.70
2022-08-22T09:55:35.157Z,3.40
2022-08-22T09:56:30.019Z,3.90
2022-08-22T09:57:30.109Z,3.60
2022-08-22T09:58:29.996Z,3.90
2022-08-22T09:59:30.019Z,4.10
2022-08-22T10:00:29.980Z,3.80
2022-08-22T10:01:32.862Z,3.50
2022-08-22T10:02:30.078Z,3.60
2022-08-22T10:03:30.443Z,3.80
2022-08-22T10:04:29.975Z,3.80
2022-08-22T10:05:40.270Z,3.50
2022-08-22T10:06:29.952Z,3.50
2022-08-22T10:07:29.900Z,4.10
2022-08-22T10:08:29.893Z,4.40
2022-08-22T10:09:31.346Z,3.80
2022-08-22T10:10:29.851Z,4.10
2022-08-22T10:11:29.842Z,4.20
2022-08-22T10:12:35.134Z,3.80
2022-08-22T10:13:29.863Z,3.80
2022-08-22T10:14:29.855Z,3.90
2022-08-22T10:15:29.802Z,4.20
2022-08-22T10:16:29.819Z,4.20
2022-08-22T10:17:29.786Z,4.10
2022-08-22T10:18:29.776Z,3.50
2022-08-22T10:19:29.787Z,3.90
2022-08-22T10:20:29.752Z,3.40
2022-08-22T10:21:29.765Z,3.90
2022-08-22T10:22:30.958Z,4.10
2022-08-22T10:23:29.729Z,3.90
2022-08-22T10:24:29.754Z,3.90
2022-08-22T10:25:29.731Z,3.50
2022-08-22T10:26:29.712Z,3.30
2022-08-22T10:27:29.685Z,3.30
2022-08-22T10:28:29.693Z,3.30
2022-08-22T10:29:29.674Z,3.20
2022-08-22T10:30:29.697Z,3.40
2022-08-22T10:31:29.659Z,3.60
2022-08-22T10:32:29.630Z,3.40
2022-08-22T10:33:29.647Z,3.10
2022-08-22T10:34:29.620Z,3.30
2022-08-22T10:35:29.600Z,3.30
2022-08-22T10:36:29.589Z,3.30
2022-08-22T10:37:29.580Z,3.00
2022-08-22T10:38:29.557Z,3.20
2022-08-22T10:39:29.583Z,3.10
2022-08-22T10:40:29.543Z,3.10
2022-08-22T10:41:29.539Z,3.10
2022-08-22T10:42:35.260Z,3.10
2022-08-22T10:43:29.511Z,2.80
2022-08-22T10:44:29.532Z,2.90
2022-08-22T10:45:35.632Z,2.70
2022-08-22T10:46:29.473Z,3.00
2022-08-22T10:47:29.463Z,3.10
2022-08-22T10:48:29.451Z,2.70
2022-08-22T10:49:29.456Z,2.80
2022-08-22T10:50:31.208Z,2.50
2022-08-22T10:51:29.412Z,2.60
2022-08-22T10:52:29.420Z,2.70
2022-08-22T10:53:29.793Z,2.50
2022-08-22T10:54:29.421Z,2.60
2022-08-22T10:55:29.376Z,2.80
2022-08-22T10:56:29.383Z,2.40
2022-08-22T10:57:29.354Z,3.00
2022-08-22T10:58:29.333Z,2.90
2022-08-22T10:59:29.349Z,2.80
2022-08-22T11:00:29.328Z,2.70
2022-08-22T11:01:37.697Z,2.60
2022-08-22T11:02:29.317Z,2.60
2022-08-22T11:03:29.283Z,2.70
2022-08-22T11:04:29.293Z,2.70
2022-08-22T11:05:29.258Z,2.50
2022-08-22T11:06:29.262Z,2.80
2022-08-22T11:07:29.257Z,2.50
2022-08-22T11:08:29.221Z,2.70
2022-08-22T11:09:32.143Z,2.50
2022-08-22T11:10:29.212Z,2.50
2022-08-22T11:11:32.841Z,2.40
2022-08-22T11:12:34.670Z,2.50
2022-08-22T11:13:29.272Z,2.20
2022-08-22T11:14:29.179Z,2.40
2022-08-22T11:15:35.241Z,2.60
2022-08-22T11:16:29.150Z,2.00
2022-08-22T11:17:32.310Z,2.60
2022-08-22T11:18:30.526Z,2.30
2022-08-22T11:19:29.118Z,2.50
2022-08-22T11:20:29.102Z,2.10
2022-08-22T11:21:29.098Z,2.10
2022-08-22T11:22:29.075Z,2.10
2022-08-22T11:23:29.062Z,2.20
2022-08-22T11:24:35.226Z,2.20
2022-08-22T11:25:36.247Z,2.00
2022-08-22T11:26:29.290Z,2.30
2022-08-22T11:27:38.087Z,2.40
2022-08-22T11:28:29.016Z,2.20
2022-08-22T11:29:29.005Z,2.30
2022-08-22T11:30:28.974Z,2.00
2022-08-22T11:31:31.811Z,2.00
2022-08-22T11:32:28.969Z,2.60
2022-08-22T11:33:33.888Z,2.40
2022-08-22T11:34:28.961Z,2.10
2022-08-22T11:35:28.918Z,2.40
2022-08-22T11:36:30.577Z,2.30
2022-08-22T11:37:34.483Z,1.90
2022-08-22T11:38:32.895Z,2.30
2022-08-22T11:39:28.895Z,2.50
2022-08-22T11:40:28.925Z,2.30
2022-08-22T11:41:28.868Z,2.50
2022-08-22T11:42:29.495Z,2.40
2022-08-22T11:43:28.837Z,2.10
2022-08-22T11:44:28.847Z,2.00
2022-08-22T11:45:28.814Z,2.60
2022-08-22T11:46:28.799Z,2.10
2022-08-22T11:47:29.034Z,2.10
2022-08-22T11:48:28.794Z,2.20
2022-08-22T11:49:32.711Z,2.00
2022-08-22T11:50:28.813Z,2.20
2022-08-22T11:51:28.741Z,2.20
2022-08-22T11:52:28.737Z,2.10
2022-08-22T11:53:28.763Z,2.10
2022-08-22T11:54:31.100Z,2.30
2022-08-22T11:55:33.020Z,2.20
2022-08-22T11:56:28.702Z,2.60
2022-08-22T11:57:28.697Z,2.30
2022-08-22T11:58:29.356Z,2.50
2022-08-22T11:59:28.666Z,2.10
2022-08-22T12:00:28.638Z,2.30
2022-08-22T12:01:34.392Z,2.10
2022-08-22T12:02:28.703Z,2.10
2022-08-22T12:03:28.620Z,2.30
2022-08-22T12:04:28.626Z,2.20
2022-08-22T12:05:28.579Z,2.30
2022-08-22T12:06:28.591Z,2.30
2022-08-22T12:07:28.576Z,2.40
2022-08-22T12:08:28.552Z,2.50
2022-08-22T12:09:29.683Z,2.20
2022-08-22T12:10:28.537Z,2.90
2022-08-22T12:11:28.508Z,2.40
2022-08-22T12:12:28.509Z,2.30
2022-08-22T12:13:34.183Z,2.60
2022-08-22T12:14:28.518Z,2.30
2022-08-22T12:15:28.551Z,2.40
2022-08-22T12:16:28.465Z,2.10
2022-08-22T12:17:55.559Z,2.30
2022-08-22T12:18:28.442Z,2.40
2022-08-22T12:19:28.449Z,2.40
2022-08-22T12:20:28.417Z,2.30
2022-08-22T12:21:28.400Z,2.30
2022-08-22T12:22:28.953Z,2.10
2022-08-22T12:23:38.010Z,2.40
2022-08-22T12:24:28.396Z,2.40
2022-08-22T12:25:28.374Z,2.50
2022-08-22T12:26:28.372Z,2.40
2022-08-22T12:27:29.294Z,2.60
2022-08-22T12:28:28.329Z,2.20
2022-08-22T12:29:33.944Z,2.20
2022-08-22T12:30:28.308Z,2.60
2022-08-22T12:31:28.301Z,2.40
2022-08-22T12:32:28.296Z,2.50
2022-08-22T12:33:28.277Z,2.40
2022-08-22T12:34:28.276Z,2.50
2022-08-22T12:35:30.355Z,2.10
2022-08-22T12:36:28.256Z,2.30
2022-08-22T12:37:28.232Z,2.50
2022-08-22T12:38:30.677Z,2.60
2022-08-22T12:39:28.237Z,2.50
2022-08-22T12:40:28.255Z,2.60
2022-08-22T12:41:35.068Z,2.50
2022-08-22T12:42:28.205Z,2.50
2022-08-22T12:43:28.190Z,2.30
2022-08-22T12:44:28.176Z,2.50
2022-08-22T12:45:28.148Z,2.70
2022-08-22T12:46:28.239Z,2.70
2022-08-22T12:47:28.145Z,2.50
2022-08-22T12:48:28.103Z,2.50
2022-08-22T12:49:28.154Z,2.70
2022-08-22T12:50:28.083Z,2.30
2022-08-22T12:51:29.474Z,2.50
2022-08-22T12:52:28.058Z,2.40
2022-08-22T12:53:28.335Z,2.50
2022-08-22T12:54:28.058Z,2.80
2022-08-22T12:55:28.069Z,2.60
2022-08-22T12:56:28.036Z,2.90
2022-08-22T12:57:28.012Z,2.90
2022-08-22T12:58:33.072Z,2.70
2022-08-22T12:59:28.038Z,2.60
2022-08-22T13:00:29.441Z,2.40
2022-08-22T13:01:34.289Z,2.40
2022-08-22T13:02:27.965Z,2.60
2022-08-22T13:03:27.940Z,2.40
2022-08-22T13:04:33.332Z,2.40
2022-08-22T13:05:27.951Z,2.70
2022-08-22T13:06:27.918Z,2.70
2022-08-22T13:07:27.905Z,2.60
2022-08-22T13:08:27.916Z,2.50
2022-08-22T13:09:28.887Z,2.70
2022-08-22T13:10:27.862Z,2.50
2022-08-22T13:11:27.875Z,2.60
2022-08-22T13:12:27.859Z,2.70
2022-08-22T13:13:36.482Z,2.60
2022-08-22T13:14:27.869Z,2.70
2022-08-22T13:15:27.824Z,2.30
2022-08-22T13:16:27.808Z,2.50
2022-08-22T13:17:27.807Z,2.50
2022-08-22T13:18:30.446Z,2.70
2022-08-22T13:19:27.787Z,2.40
2022-08-22T13:20:27.774Z,2.60
2022-08-22T13:21:28.786Z,2.60
2022-08-22T13:22:27.747Z,2.60
2022-08-22T13:23:27.779Z,2.80
2022-08-22T13:24:38.918Z,2.70
2022-08-22T13:25:27.724Z,2.80
2022-08-22T13:26:34.088Z,2.80
2022-08-22T13:27:30.232Z,2.60
2022-08-22T13:28:27.705Z,2.50
2022-08-22T13:29:39.185Z,2.30
2022-08-22T13:30:27.696Z,2.70
2022-08-22T13:31:27.646Z,2.60
2022-08-22T13:32:27.750Z,2.50
2022-08-22T13:33:27.743Z,2.50
2022-08-22T13:34:27.657Z,2.30
2022-08-22T13:35:27.604Z,2.70
2022-08-22T13:36:27.589Z,2.60
2022-08-22T13:37:27.578Z,2.50
2022-08-22T13:38:27.583Z,2.90
2022-08-22T13:39:27.575Z,2.90
2022-08-22T13:40:27.581Z,2.60
2022-08-22T13:41:27.546Z,2.70
2022-08-22T13:42:30.110Z,2.50
2022-08-22T13:43:27.509Z,2.50
2022-08-22T13:44:27.521Z,2.70
2022-08-22T13:45:27.497Z,2.50
2022-08-22T13:46:28.114Z,2.40
2022-08-22T13:47:27.471Z,2.50
2022-08-22T13:48:28.562Z,2.40
2022-08-22T13:49:27.478Z,2.40
2022-08-22T13:50:27.444Z,2.40
2022-08-22T13:51:27.422Z,2.70
2022-08-22T13:52:29.600Z,2.70
2022-08-22T13:53:27.440Z,2.50
2022-08-22T13:54:27.411Z,2.70